createdAt,value
2019-01-26T00:00:04.249Z,0.30
2019-01-26T01:02:07.496Z,0.57
2019-01-26T01:07:08.804Z,0.64
2019-01-26T01:12:10.822Z,0.60
2019-01-26T01:17:12.153Z,0.75
2019-01-26T01:22:14.193Z,0.86
2019-01-26T01:27:15.501Z,0.75
2019-01-26T02:35:37.863Z,1.42
2019-01-26T02:40:39.165Z,1.21
2019-01-26T02:45:52.715Z,1.41
2019-01-26T02:50:54.761Z,1.58
2019-01-26T02:55:56.081Z,1.59
2019-01-26T04:04:19.644Z,1.64
2019-01-26T04:09:20.953Z,1.61
2019-01-26T04:14:22.240Z,1.65
2019-01-26T04:19:23.555Z,1.79
2019-01-26T04:24:25.609Z,1.90
2019-01-26T04:29:26.950Z,1.75
2019-01-26T06:03:13.579Z,1.83
2019-01-26T06:08:14.857Z,2.02
2019-01-26T06:13:16.131Z,2.30
2019-01-26T06:18:17.500Z,2.35
2019-01-26T06:23:18.790Z,2.24
2019-01-26T06:28:20.077Z,2.31
2019-01-26T06:33:21.363Z,2.43
2019-01-26T06:38:22.641Z,2.57
2019-01-26T06:43:23.919Z,2.40
2019-01-26T06:48:25.199Z,2.61
2019-01-26T06:53:26.487Z,2.52
2019-01-26T06:58:27.744Z,2.52
2019-01-26T07:03:31.111Z,2.65
2019-01-26T07:08:32.374Z,2.81
2019-01-26T07:13:33.697Z,2.80
2019-01-26T07:18:34.999Z,3.08
2019-01-26T07:23:36.286Z,2.79
2019-01-26T07:28:37.612Z,3.01
2019-01-26T07:33:38.901Z,3.01
2019-01-26T07:38:40.201Z,3.26
2019-01-26T07:43:41.485Z,3.09
2019-01-26T07:48:42.771Z,3.25
2019-01-26T07:53:44.129Z,3.28
2019-01-26T07:58:45.495Z,3.11
2019-01-26T08:03:46.842Z,3.22
2019-01-26T08:08:48.157Z,3.18
2019-01-26T08:13:49.460Z,3.33
2019-01-26T08:18:50.810Z,3.47
2019-01-26T08:23:52.169Z,3.56
2019-01-26T08:28:54.206Z,3.59
2019-01-26T08:33:55.554Z,3.63
2019-01-26T08:38:56.892Z,3.69
2019-01-26T08:43:58.309Z,3.81
2019-01-26T08:48:59.608Z,3.92
2019-01-26T08:54:01.727Z,3.89
2019-01-26T08:59:10.844Z,4.08
2019-01-26T09:04:24.848Z,4.06
2019-01-26T09:09:26.222Z,3.98
2019-01-26T09:14:27.566Z,4.00
2019-01-26T09:19:28.955Z,4.14
2019-01-26T09:24:31.036Z,4.05
2019-01-26T09:29:32.368Z,4.26
2019-01-26T09:34:41.845Z,4.36
2019-01-26T09:39:43.138Z,4.26
2019-01-26T09:44:44.443Z,4.25
2019-01-26T09:49:45.756Z,4.27
2019-01-26T09:54:54.833Z,4.14
2019-01-26T09:59:56.857Z,4.31
2019-01-26T10:04:58.179Z,4.37
2019-01-26T10:09:59.511Z,4.40
2019-01-26T10:15:00.837Z,4.78
2019-01-26T10:20:02.178Z,4.60
2019-01-26T10:25:03.512Z,4.46
2019-01-26T10:30:04.902Z,4.45
2019-01-26T10:35:06.221Z,4.47
2019-01-26T10:40:07.526Z,4.64
2019-01-26T10:45:09.577Z,4.57
2019-01-26T10:50:10.879Z,4.68
2019-01-26T10:55:12.190Z,4.83
2019-01-26T11:00:14.296Z,4.76
2019-01-26T11:05:16.356Z,4.78
2019-01-26T11:10:18.430Z,4.87
2019-01-26T11:15:19.719Z,4.89
2019-01-26T11:20:21.758Z,5.28
2019-01-26T11:25:23.029Z,5.27
2019-01-26T11:30:24.352Z,5.35
2019-01-26T11:35:25.661Z,5.60
2019-01-26T11:40:26.944Z,5.59
2019-01-26T11:45:35.895Z,5.92
2019-01-26T11:50:42.500Z,5.87
2019-01-26T11:55:50.155Z,5.86
2019-01-26T12:01:03.835Z,5.96
2019-01-26T12:06:10.153Z,5.89
2019-01-26T12:11:15.507Z,6.00
2019-01-26T12:16:30.479Z,6.18
2019-01-26T12:21:40.363Z,6.10
2019-01-26T12:26:42.858Z,6.29
2019-01-26T12:31:45.769Z,6.45
2019-01-26T12:36:47.770Z,6.35
2019-01-26T12:41:50.595Z,6.72
2019-01-26T12:47:01.371Z,6.29
2019-01-26T12:52:04.261Z,6.46
2019-01-26T12:57:12.342Z,6.50
2019-01-26T13:02:16.046Z,6.56
2019-01-26T13:07:29.019Z,6.44
2019-01-26T13:12:30.959Z,6.61
2019-01-26T13:17:35.618Z,6.71
2019-01-26T13:22:37.774Z,6.45
2019-01-26T13:27:41.272Z,6.45
2019-01-26T13:32:44.404Z,6.72
2019-01-26T13:37:46.060Z,6.75
2019-01-26T13:42:50.867Z,6.67
2019-01-26T13:47:56.141Z,6.74
2019-01-26T13:52:57.733Z,7.07
2019-01-26T13:57:59.144Z,7.07
2019-01-26T14:03:00.640Z,7.17
2019-01-26T14:08:04.061Z,7.09
2019-01-26T14:13:05.497Z,7.16
2019-01-26T14:18:06.829Z,7.05
2019-01-26T14:23:08.962Z,7.22
2019-01-26T14:28:11.032Z,6.96
2019-01-26T14:33:13.566Z,7.10
2019-01-26T14:38:18.520Z,6.96
2019-01-26T14:43:24.383Z,6.98
2019-01-26T14:48:25.723Z,7.14
2019-01-26T14:53:27.015Z,7.08
2019-01-26T14:58:28.386Z,6.96
2019-01-26T15:03:30.625Z,6.83
2019-01-26T15:08:32.056Z,6.85
2019-01-26T15:13:35.147Z,7.05
2019-01-26T15:18:47.868Z,6.86
2019-01-26T15:23:49.154Z,7.09
2019-01-26T15:28:52.263Z,6.98
2019-01-26T15:33:55.706Z,6.91
2019-01-26T15:38:56.989Z,7.01
2019-01-26T15:43:58.296Z,6.67
2019-01-26T15:49:00.336Z,6.87
2019-01-26T15:54:01.640Z,6.81
2019-01-26T15:59:09.073Z,7.00
2019-01-26T16:04:13.564Z,7.07
2019-01-26T16:09:16.877Z,7.03
2019-01-26T16:14:18.933Z,6.94
2019-01-26T16:19:20.201Z,6.99
2019-01-26T16:24:21.515Z,6.83
2019-01-26T16:29:22.820Z,6.82
2019-01-26T16:34:27.462Z,6.69
2019-01-26T16:39:28.924Z,6.92
2019-01-26T16:44:32.081Z,6.83
2019-01-26T16:49:32.609Z,6.72
2019-01-26T16:54:34.008Z,6.70
2019-01-26T16:59:35.388Z,6.66
2019-01-26T17:04:36.788Z,6.74
2019-01-26T17:09:41.735Z,6.52
2019-01-26T17:14:43.144Z,6.76
2019-01-26T17:19:44.460Z,6.58
2019-01-26T17:24:45.766Z,6.46
2019-01-26T17:29:47.138Z,6.78
2019-01-26T17:34:48.536Z,6.70
2019-01-26T17:39:49.833Z,6.59
2019-01-26T17:44:51.225Z,6.64
2019-01-26T17:49:53.316Z,6.77
2019-01-26T17:54:54.756Z,6.61
2019-01-26T17:59:56.892Z,6.51
2019-01-26T18:04:59.324Z,6.74
2019-01-26T18:10:01.438Z,6.64
2019-01-26T18:15:02.813Z,6.96
2019-01-26T18:20:25.691Z,6.79
2019-01-26T18:25:27.097Z,6.71
2019-01-26T18:30:29.174Z,6.75
2019-01-26T18:35:34.099Z,6.77
2019-01-26T18:40:35.497Z,6.61
2019-01-26T18:45:38.831Z,6.79
2019-01-26T18:50:45.985Z,6.84
2019-01-26T18:55:47.718Z,6.62
2019-01-26T19:00:49.125Z,6.70
2019-01-26T19:05:50.491Z,6.89
2019-01-26T19:10:59.455Z,6.63
2019-01-26T19:16:02.842Z,6.86
2019-01-26T19:21:04.246Z,6.68
2019-01-26T19:26:06.388Z,6.72
2019-01-26T19:31:07.740Z,7.17
2019-01-26T19:36:09.051Z,7.12
2019-01-26T19:41:10.361Z,6.78
2019-01-26T19:46:11.807Z,6.69
2019-01-26T19:51:13.248Z,6.88
2019-01-26T19:56:15.416Z,6.66
2019-01-26T20:01:16.860Z,6.65
2019-01-26T20:06:18.360Z,6.54
2019-01-26T20:11:20.540Z,6.50
2019-01-26T20:16:21.861Z,6.53
2019-01-26T20:21:23.252Z,6.66
2019-01-26T20:26:24.604Z,6.66
2019-01-26T20:31:26.041Z,6.46
2019-01-26T20:36:32.414Z,6.70
2019-01-26T20:41:33.792Z,6.54
2019-01-26T20:46:35.116Z,6.75
2019-01-26T20:51:36.552Z,6.52
2019-01-26T20:56:37.999Z,6.42
2019-01-26T21:01:39.345Z,6.55
2019-01-26T21:06:40.761Z,6.52
2019-01-26T21:11:42.095Z,6.64
2019-01-26T21:16:43.393Z,6.80
2019-01-26T21:21:45.725Z,6.92
2019-01-26T21:26:49.781Z,6.96
2019-01-26T21:31:53.169Z,6.87
2019-01-26T21:36:54.479Z,6.89
2019-01-26T21:41:55.797Z,6.82
2019-01-26T21:46:57.077Z,6.90
2019-01-26T21:52:04.360Z,6.88
2019-01-26T21:57:07.667Z,6.77
2019-01-26T22:02:09.024Z,6.77
2019-01-26T22:07:11.129Z,6.57
2019-01-26T22:12:16.861Z,6.57
2019-01-26T22:17:18.190Z,6.56
2019-01-26T22:22:19.516Z,6.63
2019-01-26T22:27:21.213Z,6.69
2019-01-26T22:32:22.673Z,6.78
2019-01-26T22:37:28.729Z,6.78
2019-01-26T22:42:30.023Z,6.78
2019-01-26T22:47:40.156Z,6.75
2019-01-26T22:52:41.460Z,6.69
2019-01-26T22:57:42.758Z,6.62
2019-01-26T23:34:23.116Z,6.21
2019-01-26T23:39:24.444Z,6.22
2019-01-26T23:44:25.733Z,6.19
2019-01-26T23:49:27.005Z,6.09
2019-01-26T23:54:29.036Z,6.09
2019-01-26T23:59:30.331Z,6.07
